Historyczne dane pomiarowe

Dodano dane terminowe – wersja testowa.

Dane z okresu 1951-2019

Wersja bazy: 1.34 [2019-03-16, lista zmian], aktualizacja planowana na 2019-04-15

Dane meteo z obszaru Polski uzyskane na podstawie danych udostępnionych przez Instytut Meteorologii i Gospodarki Wodnej – Państwowy Instytut Badawczy.

 

Wybierz Datę:    

       

TemperaturaWilgotnośćWiatrCiśnienieOpadyŚniegCzas trwania zjawisk
 Stacja t tx tn tng RH VA  wxwx mslp ppp RRR   cm mm wxwxwxwxwxwxwx
1994-08-14 14.5 19.3 10.4 10.8 78.3- 3.7 6.0---- 2.5------------
1994-08-13 17.9 22.4 12.7 11.4 78.8- 6.7 4.0---- 0.4------------
1994-08-12 17.5 23.1 9.5 9.8 76.0- 4.0 1.3---- 0.0------------
1994-08-11 18.2 25.7 9.9 11.4 73.3- 1.7 2.0---- 0.4------------
1994-08-10 19.4 25.0 11.4 10.8 77.0- 1.7 1.7---- 0.0------------
1994-08-09 19.3 24.1 12.4 14.0 80.5- 4.0 0.7---- 0.0------------
1994-08-08 19.0 26.0 13.4 12.8 79.8- 3.7 1.7---- 0.0------------
1994-08-07 20.5 26.0 13.8 13.7 75.8- 1.3 1.7---- 0.0------------
1994-08-06 25.8 34.3 15.4 15.1 70.8- 3.7 3.3---- 0.0------------
1994-08-05 21.9 30.8 12.2 13.7 74.3- 2.7 1.7---- 0.0------------
1994-08-04 21.8 27.1 16.1 15.4 79.8- 2.3 1.3---- 0.0------------
1994-08-03 21.4 25.8 18.4 15.4 86.5- 6.0 1.3---- 0.0------------
1994-08-02 24.9 32.1 16.2 16.1 76.8- 1.3 2.0---- 0.0------------
1994-08-01 25.7 31.3 20.7 16.1 75.3- 5.0 1.7---- 0.0------------
1994-07-31 26.8 36.0 17.7 19.8 77.8- 2.3 1.3---- 0.0------------
1994-07-30 26.2 35.1 17.2 17.0 65.8- 1.3 2.3---- 0.0------------
1994-07-29 25.2 35.4 15.4 15.5 69.5- 1.3 1.3---- 0.0------------
1994-07-28 24.1 33.3 13.7 14.7 68.8- 1.0 2.0---- 0.0------------
1994-07-27 23.5 32.3 12.8 11.1 67.8- 2.0 1.0---- 0.0------------
1994-07-26 22.8 31.3 11.0 8.0 69.0- 0.0 1.3---- 0.0------------
1994-07-25 21.4 28.4 11.2 9.8 73.8- 1.0 2.0---- 0.0------------
1994-07-24 20.3 28.2 9.0 13.7 67.5- 1.0 1.0---- 0.0------------
1994-07-23 18.9 26.2 7.4 13.1 73.8- 1.7 1.3---- 0.0------------
1994-07-22 17.8 23.7 7.0 10.7 78.8- 2.0 2.3---- 0.0------------
1994-07-21 17.4 25.9 6.7 7.5 77.3- 0.7 3.7---- 0.0------------
1994-07-20 16.9 21.9 8.4 8.0 73.3- 1.7 4.0---- 0.0------------
1994-07-19 17.4 21.2 8.5 11.4 66.5- 1.7 3.7---- 0.0------------
1994-07-18 16.6 21.9 7.0 10.3 73.8- 2.0 2.3---- 0.0------------
1994-07-17 18.7 23.7 12.1 18.0 78.0- 4.0 1.7---- 0.0------------
1994-07-16 20.7 26.6 15.8 15.4 86.5- 4.7 2.0---- 0.3------------
1994-07-15 24.7 31.5 16.2 17.5 68.3- 1.0 2.7---- 0.0------------
1994-07-14 24.9 31.1 15.2 16.3 74.8- 2.7 1.7---- 0.0------------
1994-07-13 23.1 29.7 13.5 6.3 73.8- 1.0 1.7---- 0.0------------
1994-07-12 21.1 27.3 11.4 12.7 79.5- 0.7 3.3---- 0.0------------
1994-07-11 19.0 25.0 8.2 12.2 77.3- 0.3 3.0---- 0.0------------
1994-07-10 18.0 24.1 9.8 8.8 80.5- 0.0 2.0---- 0.0------------
1994-07-09 15.6 20.1 8.9 8.7 83.3- 4.3 3.7---- 0.0------------
1994-07-08 14.4 22.8 6.3 7.5 83.5- 6.3 2.7---- 20.4------------
1994-07-07 15.1 20.9 4.1 5.5 74.8- 2.0 2.0---- 0.0------------
1994-07-06 15.1 21.7 7.3 7.1 76.3- 2.0 3.0---- 0.0------------
1994-07-05 15.5 20.0 8.8 7.5 78.3- 2.7 3.3---- 0.0------------
1994-07-04 16.4 22.1 6.1 6.9 74.0- 0.7 2.3---- 0.0------------
1994-07-03 16.0 21.7 5.1 12.5 72.8- 1.0 2.7---- 0.0------------
1994-07-02 15.0 20.6 4.6 5.8 73.8- 0.0 2.3---- 0.0------------
1994-07-01 15.3 19.2 9.8 9.8 81.5- 2.3 2.7---- 0.0------------
1994-06-30 18.4 24.5 8.9 9.4 75.8- 3.3 4.7---- 0.0------------
1994-06-29 20.8 28.4 10.4 11.1 75.0- 1.7 3.0---- 0.0------------
1994-06-28 17.8 26.4 9.9 10.5 77.5- 1.3 3.0---- 0.0------------
1994-06-27 19.2 26.0 12.7 8.0 79.0- 2.3 3.0---- 0.0------------
1994-06-26 19.4 28.8 7.9 7.7 71.5- 0.0 3.7---- 0.0------------
1994-06-25 14.7 21.7 3.5 5.1 74.5- 0.3 2.0---- 0.0------------
1994-06-24 13.4 17.6 11.0 6.9 74.5- 2.7 3.3---- 0.0------------
1994-06-23 13.4 17.1 9.9 6.3 71.5- 4.3 12.0---- 0.3------------
1994-06-22 14.7 20.9 12.7 7.4 78.0- 4.7 4.7---- 0.3------------
1994-06-21 13.6 20.1 4.6 4.7 75.5- 1.3 2.7---- 0.2------------
1994-06-20 13.8 17.6 10.2 6.4 69.5- 2.7 4.0---- 0.0------------
1994-06-19 13.0 16.2 9.5 5.1 88.3- 8.0 5.3---- 0.3------------
1994-06-18 10.4 17.0 3.1 2.6 79.8- 4.0 5.7---- 3.7------------
1994-06-17 8.2 12.7 3.8 4.7 82.8- 6.0 1.7---- 20.3------------
1994-06-16 11.3 14.8 8.1 5.9 73.5- 5.3 6.0---- 1.0------------
326.4 ms

 

Źródłem pochodzenia danych jest Instytut Meteorologii i Gospodarki Wodnej – Państwowy Instytut Badawczy. Dane Instytutu Meteorologii i Gospodarki Wodnej – Państwowego Instytutu Badawczego zostały przetworzone.

Dane źródłowe można odnaleźć na stronie https://dane.imgw.pl